Tourist Ferry Boat 3 — IQAQ — position and weather

sailwx.info

Track history (hours):
 
Tides and Currents Weather Stations Pressure Air Temp Water Temp Dewpoint Dewpoint Depression Visibility Wind Speed Wind Dir Waves Ship Positions

Tourist Ferry Boat 3

Last reported at 2016-Dec-01 12:33 UTC. Time now 2016-Dec-08 09:59 UTC.
Position N 40°47' E 014°10'.

Length 58 m; draft 1.8 m.

Type: Ship. MMSI: 247048900.

Date/timePositionNaut miles runAvg speedWind from/ knotsBaromVisibWave heightAir tempDewpointWater temp
2016-Dec-01 12:33N 40°47' E 014°10'5 5.5
2016-Dec-01 11:33N 40°49' E 014°17'1110.8
2016-Dec-01 10:34N 40°46' E 014°03'7 6.1
2016-Dec-01 09:29N 40°45' E 013°54'0 0.0
2016-Dec-01 08:29N 40°45' E 013°54'0 0.0
2016-Dec-01 07:29N 40°45' E 013°54'0 0.0
2016-Dec-01 06:29N 40°45' E 013°54'7 7.0
2016-Dec-01 05:33N 40°46' E 014°03'4 0.3
2016-Nov-30 16:21N 40°49' E 014°07'5 6.8
2016-Nov-30 15:33N 40°46' E 014°02'5 5.4
2016-Nov-30 14:33N 40°49' E 014°07'0 0.0
2016-Nov-30 13:33N 40°49' E 014°07'5 5.4
2016-Nov-30 12:33N 40°46' E 014°02'5 5.3
2016-Nov-30 11:33N 40°49' E 014°07'4 3.9
2016-Nov-30 10:33N 40°46' E 014°04'4 3.7
2016-Nov-30 09:33N 40°49' E 014°07'0 0.2
2016-Nov-30 08:24N 40°49' E 014°07'5 6.0
2016-Nov-30 07:33N 40°46' E 014°02'5 5.1
2016-Nov-30 06:32N 40°49' E 014°07'4 3.9
2016-Nov-30 05:33N 40°46' E 014°04'4 0.3
2016-Nov-29 14:30N 40°49' E 014°07'0 0.0
2016-Nov-29 13:30N 40°49' E 014°07'0 0.0
2016-Nov-29 12:30N 40°49' E 014°07'0 0.0
2016-Nov-29 11:33N 40°49' E 014°07'0 0.0
2016-Nov-29 10:33N 40°49' E 014°07'0 0.0
2016-Nov-29 09:33N 40°49' E 014°07'0 0.0
2016-Nov-29 08:33N 40°49' E 014°07'0 0.0
2016-Nov-29 07:33N 40°49' E 014°07'2 0.1
2016-Nov-28 12:33N 40°47' E 014°09'6 6.0
2016-Nov-28 11:29N 40°50' E 014°16'9 9.4
2016-Nov-28 10:33N 40°46' E 014°06'8 8.1
2016-Nov-28 09:33N 40°45' E 013°55'1 0.7
2016-Nov-28 08:33N 40°45' E 013°54'0 0.0
2016-Nov-28 07:33N 40°45' E 013°54'0 0.0
2016-Nov-28 06:33N 40°45' E 013°54'5 5.5
2016-Nov-28 05:33N 40°46' E 014°02'5 5.4
2016-Nov-28 04:33N 40°49' E 014°07'  
2016-Nov-25 11:32N 40°50' E 014°17'1010.4
2016-Nov-25 10:33N 40°46' E 014°05'8 7.7
2016-Nov-25 09:33N 40°45' E 013°54'0 0.0
2016-Nov-25 08:33N 40°45' E 013°54'0 0.0
2016-Nov-25 07:33N 40°45' E 013°54'0 0.0
2016-Nov-25 06:33N 40°45' E 013°54'7 6.7
2016-Nov-25 05:33N 40°46' E 014°03'5 4.6
2016-Nov-25 04:33N 40°49' E 014°07'0 0.0
2016-Nov-24 13:32N 40°49' E 014°07'7 6.5
2016-Nov-24 12:31N 40°48' E 014°16'2 1.7
2016-Nov-24 11:33N 40°48' E 014°13'9 9.0
2016-Nov-24 10:33N 40°46' E 014°02'6 5.6
2016-Nov-24 09:33N 40°45' E 013°54'0 0.0
2016-Nov-24 08:33N 40°45' E 013°54'0 0.0
2016-Nov-24 07:33N 40°45' E 013°54'1 0.6
2016-Nov-24 06:33N 40°45' E 013°55'8 8.3
2016-Nov-24 05:33N 40°47' E 014°06'3 2.5
2016-Nov-24 04:33N 40°49' E 014°07'0 0.0
2016-Nov-23 16:23N 40°49' E 014°07'5 6.5
2016-Nov-23 15:33N 40°46' E 014°02'5 5.4
2016-Nov-23 14:33N 40°49' E 014°07'0 0.0
2016-Nov-23 13:33N 40°49' E 014°07'5 5.4
2016-Nov-23 12:33N 40°46' E 014°02'5 5.4
2016-Nov-23 11:33N 40°49' E 014°07'4 4.0
2016-Nov-23 10:33N 40°46' E 014°04'4 3.7
2016-Nov-23 09:33N 40°49' E 014°06'0 0.5
2016-Nov-23 08:33N 40°49' E 014°07'5 5.1
2016-Nov-23 07:33N 40°46' E 014°02'5 5.2
2016-Nov-23 06:33N 40°49' E 014°07'0 0.0
2016-Nov-22 13:05N 40°49' E 014°07'5 1.9
2016-Nov-22 10:34N 40°46' E 014°03'6 6.2
2016-Nov-22 09:33N 40°45' E 013°55'0 0.0
2016-Nov-22 08:33N 40°45' E 013°54'0 0.0
2016-Nov-22 07:34N 40°45' E 013°54'10 0.6
2016-Nov-21 14:30N 40°49' E 014°07'0 0.0
2016-Nov-21 13:30N 40°49' E 014°07'5 5.5
2016-Nov-21 12:33N 40°46' E 014°02'  
Track history (hours):
 
Tides and Currents Weather Stations Pressure Air Temp Water Temp Dewpoint Dewpoint Depression Visibility Wind Speed Wind Dir Waves Ship Positions

Tourist Ferry Boat 3

Last reported at 2016-Dec-01 12:33 UTC. Time now 2016-Dec-08 09:59 UTC.
Position N 40°47' E 014°10'.

Length 58 m; draft 1.8 m.

Type: Ship. MMSI: 247048900.

Date/timePositionNaut miles runAvg speedWind from/ knotsBaromVisibWave heightAir tempDewpointWater temp
2016-Dec-01 12:33N 40°47' E 014°10'5 5.5
2016-Dec-01 11:33N 40°49' E 014°17'1110.8
2016-Dec-01 10:34N 40°46' E 014°03'7 6.1
2016-Dec-01 09:29N 40°45' E 013°54'0 0.0
2016-Dec-01 08:29N 40°45' E 013°54'0 0.0
2016-Dec-01 07:29N 40°45' E 013°54'0 0.0
2016-Dec-01 06:29N 40°45' E 013°54'7 7.0
2016-Dec-01 05:33N 40°46' E 014°03'4 0.3
2016-Nov-30 16:21N 40°49' E 014°07'5 6.8
2016-Nov-30 15:33N 40°46' E 014°02'5 5.4
2016-Nov-30 14:33N 40°49' E 014°07'0 0.0
2016-Nov-30 13:33N 40°49' E 014°07'5 5.4
2016-Nov-30 12:33N 40°46' E 014°02'5 5.3
2016-Nov-30 11:33N 40°49' E 014°07'4 3.9
2016-Nov-30 10:33N 40°46' E 014°04'4 3.7
2016-Nov-30 09:33N 40°49' E 014°07'0 0.2
2016-Nov-30 08:24N 40°49' E 014°07'5 6.0
2016-Nov-30 07:33N 40°46' E 014°02'5 5.1
2016-Nov-30 06:32N 40°49' E 014°07'4 3.9
2016-Nov-30 05:33N 40°46' E 014°04'4 0.3
2016-Nov-29 14:30N 40°49' E 014°07'0 0.0
2016-Nov-29 13:30N 40°49' E 014°07'0 0.0
2016-Nov-29 12:30N 40°49' E 014°07'0 0.0
2016-Nov-29 11:33N 40°49' E 014°07'0 0.0
2016-Nov-29 10:33N 40°49' E 014°07'0 0.0
2016-Nov-29 09:33N 40°49' E 014°07'0 0.0
2016-Nov-29 08:33N 40°49' E 014°07'0 0.0
2016-Nov-29 07:33N 40°49' E 014°07'2 0.1
2016-Nov-28 12:33N 40°47' E 014°09'6 6.0
2016-Nov-28 11:29N 40°50' E 014°16'9 9.4
2016-Nov-28 10:33N 40°46' E 014°06'8 8.1
2016-Nov-28 09:33N 40°45' E 013°55'1 0.7
2016-Nov-28 08:33N 40°45' E 013°54'0 0.0
2016-Nov-28 07:33N 40°45' E 013°54'0 0.0
2016-Nov-28 06:33N 40°45' E 013°54'5 5.5
2016-Nov-28 05:33N 40°46' E 014°02'5 5.4
2016-Nov-28 04:33N 40°49' E 014°07'  
2016-Nov-25 11:32N 40°50' E 014°17'1010.4
2016-Nov-25 10:33N 40°46' E 014°05'8 7.7
2016-Nov-25 09:33N 40°45' E 013°54'0 0.0
2016-Nov-25 08:33N 40°45' E 013°54'0 0.0
2016-Nov-25 07:33N 40°45' E 013°54'0 0.0
2016-Nov-25 06:33N 40°45' E 013°54'7 6.7
2016-Nov-25 05:33N 40°46' E 014°03'5 4.6
2016-Nov-25 04:33N 40°49' E 014°07'0 0.0
2016-Nov-24 13:32N 40°49' E 014°07'7 6.5
2016-Nov-24 12:31N 40°48' E 014°16'2 1.7
2016-Nov-24 11:33N 40°48' E 014°13'9 9.0
2016-Nov-24 10:33N 40°46' E 014°02'6 5.6
2016-Nov-24 09:33N 40°45' E 013°54'0 0.0
2016-Nov-24 08:33N 40°45' E 013°54'0 0.0
2016-Nov-24 07:33N 40°45' E 013°54'1 0.6
2016-Nov-24 06:33N 40°45' E 013°55'8 8.3
2016-Nov-24 05:33N 40°47' E 014°06'3 2.5
2016-Nov-24 04:33N 40°49' E 014°07'0 0.0
2016-Nov-23 16:23N 40°49' E 014°07'5 6.5
2016-Nov-23 15:33N 40°46' E 014°02'5 5.4
2016-Nov-23 14:33N 40°49' E 014°07'0 0.0
2016-Nov-23 13:33N 40°49' E 014°07'5 5.4
2016-Nov-23 12:33N 40°46' E 014°02'5 5.4
2016-Nov-23 11:33N 40°49' E 014°07'4 4.0
2016-Nov-23 10:33N 40°46' E 014°04'4 3.7
2016-Nov-23 09:33N 40°49' E 014°06'0 0.5
2016-Nov-23 08:33N 40°49' E 014°07'5 5.1
2016-Nov-23 07:33N 40°46' E 014°02'5 5.2
2016-Nov-23 06:33N 40°49' E 014°07'0 0.0
2016-Nov-22 13:05N 40°49' E 014°07'5 1.9
2016-Nov-22 10:34N 40°46' E 014°03'6 6.2
2016-Nov-22 09:33N 40°45' E 013°55'0 0.0
2016-Nov-22 08:33N 40°45' E 013°54'0 0.0
2016-Nov-22 07:34N 40°45' E 013°54'10 0.6
2016-Nov-21 14:30N 40°49' E 014°07'0 0.0
2016-Nov-21 13:30N 40°49' E 014°07'5 5.5
2016-Nov-21 12:33N 40°46' E 014°02'  

Dump ship's entire track history